Time;durP1;ratioP1;P1;durP2;ratioP2;P2;SDS_P1;SDS_P2;PMS_P1;PMS_P2;Temp;Humidity;BMP_temperature;BMP_pressure;BME280_temperature;BME280_humidity;BME280_pressure;Samples;Min_cycle;Max_cycle;Signal;HPM_P1;HPM_P2
2021/07/12 00:01:58;;;;;;;4.80;2.60;;;16.80;77.80;;;;;;5084274;28;20055;-67
2021/07/12 00:04:24;;;;;;;6.03;2.28;;;16.80;77.60;;;;;;5083931;28;20104;-67
2021/07/12 00:06:49;;;;;;;3.63;2.58;;;17.00;76.70;;;;;;5083938;28;20033;-67
2021/07/12 00:09:15;;;;;;;3.72;2.60;;;16.80;76.70;;;;;;5083591;28;20025;-67
2021/07/12 00:11:41;;;;;;;3.67;2.40;;;16.80;76.90;;;;;;5084384;28;20039;-67
2021/07/12 00:14:06;;;;;;;2.95;2.17;;;16.80;76.70;;;;;;5084094;28;20077;-67
2021/07/12 00:16:32;;;;;;;5.05;2.40;;;16.80;76.80;;;;;;5083622;28;20331;-67
2021/07/12 00:18:57;;;;;;;3.95;2.28;;;16.80;76.40;;;;;;5083797;28;20044;-67
2021/07/12 00:21:23;;;;;;;4.05;2.40;;;16.70;76.30;;;;;;5083453;28;20036;-67
2021/07/12 00:23:51;;;;;;;3.58;2.20;;;16.70;77.00;;;;;;5084311;28;20057;-66
2021/07/12 00:26:17;;;;;;;4.13;2.35;;;16.80;76.70;;;;;;5083885;28;20044;-67
2021/07/12 00:28:43;;;;;;;5.38;2.20;;;16.70;76.30;;;;;;5083450;28;20036;-66
2021/07/12 00:31:08;;;;;;;6.90;2.33;;;16.60;76.50;;;;;;5083410;28;20033;-67
2021/07/12 00:33:34;;;;;;;7.70;2.50;;;16.60;76.30;;;;;;5065675;28;20074;-67
2021/07/12 00:36:00;;;;;;;3.65;2.08;;;16.50;77.00;;;;;;5084349;28;20033;-67
2021/07/12 00:38:26;;;;;;;3.92;2.20;;;16.50;77.00;;;;;;5065913;28;20039;-67
2021/07/12 00:40:51;;;;;;;3.22;2.00;;;16.30;77.70;;;;;;5065614;28;20036;-67
2021/07/12 00:43:17;;;;;;;4.90;1.90;;;16.40;77.80;;;;;;5083298;28;20032;-67
2021/07/12 00:45:42;;;;;;;2.53;1.88;;;16.40;77.40;;;;;;5083213;28;20220;-68
2021/07/12 00:48:08;;;;;;;3.75;2.05;;;16.30;77.40;;;;;;5084062;28;20032;-67
2021/07/12 00:50:35;;;;;;;2.53;1.80;;;16.40;77.70;;;;;;5065505;28;20029;-67
2021/07/12 00:53:01;;;;;;;3.22;1.60;;;16.50;77.00;;;;;;5065393;28;20343;-67
2021/07/12 00:55:33;;;;;;;4.07;1.80;;;16.40;77.00;;;;;;5083055;28;20029;-67
2021/07/12 00:58:00;;;;;;;3.35;2.00;;;16.40;76.70;;;;;;5083097;28;20359;-67
2021/07/12 01:00:25;;;;;;;5.75;3.38;;;16.40;76.80;;;;;;5083067;28;20082;-66
2021/07/12 01:02:51;;;;;;;2.90;1.90;;;16.50;76.60;;;;;;5083881;28;20024;-67
2021/07/12 01:05:18;;;;;;;5.55;1.90;;;16.50;76.30;;;;;;5083524;28;20033;-67
2021/07/12 01:07:44;;;;;;;2.47;1.80;;;16.40;76.20;;;;;;5083340;28;20044;-67
2021/07/12 01:10:10;;;;;;;5.30;2.00;;;16.40;76.20;;;;;;5065369;28;20032;-67
2021/07/12 01:12:55;;;;;;;3.45;2.03;;;16.30;76.30;;;;;;5032646;28;20032;-67
2021/07/12 01:15:21;;;;;;;2.80;1.90;;;16.30;76.60;;;;;;5065274;28;20040;-67
2021/07/12 01:18:06;;;;;;;3.22;2.10;;;16.20;76.70;;;;;;5065795;28;20040;-67
2021/07/12 01:21:02;;;;;;;2.40;1.98;;;15.90;77.20;;;;;;5083487;28;20041;-67
2021/07/12 01:24:09;;;;;;;3.67;2.30;;;15.70;78.30;;;;;;5066954;28;20101;-67
2021/07/12 01:27:14;;;;;;;3.38;2.15;;;15.60;78.70;;;;;;5021025;28;20296;-67
2021/07/12 01:30:01;;;;;;;4.07;2.20;;;15.80;78.60;;;;;;5088663;28;20107;-67
2021/07/12 01:32:43;;;;;;;3.13;2.42;;;16.00;78.00;;;;;;5103640;28;20036;-67
2021/07/12 01:35:17;;;;;;;4.53;2.38;;;16.00;77.60;;;;;;5085154;28;20313;-67
2021/07/12 01:37:55;;;;;;;3.70;2.30;;;15.90;78.00;;;;;;5102920;28;20036;-68
2021/07/12 01:40:25;;;;;;;6.43;2.15;;;15.90;77.80;;;;;;5086543;28;20043;-67
2021/07/12 01:42:56;;;;;;;3.72;2.30;;;15.80;78.30;;;;;;5106638;28;20036;-67
2021/07/12 01:45:21;;;;;;;4.05;2.00;;;15.90;78.40;;;;;;5106570;28;20095;-67
2021/07/12 01:48:05;;;;;;;4.95;2.50;;;16.10;77.80;;;;;;5089451;28;20028;-67
2021/07/12 01:50:54;;;;;;;5.20;2.53;;;16.10;76.90;;;;;;5106963;28;20323;-67
2021/07/12 01:53:41;;;;;;;4.78;2.20;;;16.10;77.40;;;;;;5089068;28;20056;-67
2021/07/12 01:56:28;;;;;;;7.22;2.65;;;16.10;77.30;;;;;;5106722;28;20111;-68
2021/07/12 01:59:16;;;;;;;4.03;2.28;;;16.20;77.10;;;;;;5089158;28;20082;-67
2021/07/12 02:01:41;;;;;;;5.55;1.98;;;16.20;76.90;;;;;;5106797;28;20311;-67
2021/07/12 02:04:07;;;;;;;6.50;1.92;;;16.30;76.10;;;;;;5106604;28;20039;-67
2021/07/12 02:06:38;;;;;;;3.05;2.08;;;16.20;76.10;;;;;;5088152;28;20047;-67
2021/07/12 02:09:05;;;;;;;4.25;2.15;;;16.00;76.40;;;;;;5088676;28;20054;-67
2021/07/12 02:11:31;;;;;;;2.65;1.88;;;16.00;76.80;;;;;;5088488;28;20200;-67
2021/07/12 02:13:57;;;;;;;2.55;1.88;;;16.00;77.00;;;;;;5088473;28;20040;-67
2021/07/12 02:16:22;;;;;;;3.30;2.10;;;16.10;76.70;;;;;;5084659;28;20040;-67
2021/07/12 02:18:48;;;;;;;4.47;2.20;;;16.10;76.30;;;;;;5084540;28;20088;-67
2021/07/12 02:21:14;;;;;;;2.97;1.80;;;16.30;75.60;;;;;;5085912;28;20092;-67
2021/07/12 02:23:40;;;;;;;4.95;2.40;;;16.10;75.90;;;;;;5085257;28;20032;-67
2021/07/12 02:26:06;;;;;;;6.95;2.13;;;15.90;76.20;;;;;;5084836;28;20197;-67
2021/07/12 02:28:32;;;;;;;8.20;2.30;;;16.00;76.30;;;;;;5085967;28;20040;-67
2021/07/12 02:30:57;;;;;;;3.33;2.03;;;16.00;76.10;;;;;;5084647;28;20069;-67
2021/07/12 02:33:24;;;;;;;6.15;2.00;;;15.90;76.30;;;;;;5084323;28;20202;-66
2021/07/12 02:35:50;;;;;;;5.45;2.80;;;15.90;76.50;;;;;;5084680;28;20029;-67
2021/07/12 02:38:16;;;;;;;7.13;2.05;;;15.80;76.90;;;;;;5084718;28;20028;-67
2021/07/12 02:40:42;;;;;;;4.22;1.92;;;15.80;76.80;;;;;;5085269;28;20359;-67
2021/07/12 02:43:08;;;;;;;3.55;2.17;;;15.90;76.10;;;;;;5067428;28;20039;-66
2021/07/12 02:45:36;;;;;;;2.33;1.73;;;15.90;75.70;;;;;;5084075;28;20267;-67
2021/07/12 02:48:02;;;;;;;2.40;1.90;;;15.90;75.80;;;;;;5085918;28;20066;-67
2021/07/12 02:50:28;;;;;;;2.50;1.80;;;15.80;76.00;;;;;;5085439;28;20032;-67
2021/07/12 02:53:17;;;;;;;6.97;2.22;;;15.80;75.90;;;;;;5084295;28;20186;-67
2021/07/12 02:55:43;;;;;;;3.35;1.90;;;15.70;75.90;;;;;;5084975;28;20079;-67
2021/07/12 02:58:08;;;;;;;2.67;1.90;;;15.60;76.40;;;;;;5084914;28;20029;-67
2021/07/12 03:00:34;;;;;;;3.13;1.88;;;15.60;76.10;;;;;;5084999;28;20032;-67
2021/07/12 03:02:59;;;;;;;2.63;1.83;;;15.50;76.10;;;;;;5085324;28;20036;-67
2021/07/12 03:05:25;;;;;;;4.82;1.95;;;15.60;76.20;;;;;;5085308;28;20082;-67
2021/07/12 03:08:02;;;;;;;2.42;1.90;;;15.50;76.20;;;;;;5083978;28;20032;-66
2021/07/12 03:10:30;;;;;;;3.22;2.00;;;15.60;76.10;;;;;;5083592;28;20039;-66
2021/07/12 03:13:00;;;;;;;2.20;1.80;;;15.50;76.20;;;;;;5084628;28;20033;-66
2021/07/12 03:15:44;;;;;;;4.47;2.00;;;15.60;76.10;;;;;;5092097;28;20063;-66
2021/07/12 03:18:21;;;;;;;4.80;1.80;;;15.60;75.60;;;;;;5087793;28;20087;-66
2021/07/12 03:20:47;;;;;;;3.30;1.88;;;15.60;75.40;;;;;;5104909;28;20032;-67
2021/07/12 03:23:13;;;;;;;3.03;1.73;;;15.40;76.40;;;;;;5087167;28;20039;-66
2021/07/12 03:25:40;;;;;;;4.55;2.15;;;15.50;76.30;;;;;;5086908;28;20036;-67
2021/07/12 03:28:06;;;;;;;7.18;2.05;;;15.50;75.30;;;;;;5086841;28;20266;-67
2021/07/12 03:30:32;;;;;;;4.20;2.03;;;15.40;75.90;;;;;;5086497;28;20047;-67
2021/07/12 03:32:58;;;;;;;6.22;1.90;;;15.40;76.40;;;;;;5105348;28;20031;-67
2021/07/12 03:35:26;;;;;;;4.15;1.80;;;15.40;76.30;;;;;;5087062;28;20397;-67
2021/07/12 03:37:52;;;;;;;4.68;2.00;;;15.40;76.10;;;;;;5086620;28;20051;-66
2021/07/12 03:40:17;;;;;;;3.42;1.73;;;15.40;76.00;;;;;;5104328;28;20028;-66
2021/07/12 03:42:43;;;;;;;3.78;1.90;;;15.30;76.40;;;;;;5086366;28;20091;-67
2021/07/12 03:45:09;;;;;;;4.05;1.90;;;15.30;76.80;;;;;;5105804;28;20024;-67
2021/07/12 03:47:36;;;;;;;3.85;1.95;;;15.30;76.50;;;;;;5104239;28;20032;-67
2021/07/12 03:50:06;;;;;;;3.33;2.03;;;15.30;76.40;;;;;;5086392;28;20032;-67
2021/07/12 03:52:39;;;;;;;8.38;1.80;;;15.30;76.70;;;;;;5104241;28;20032;-67
2021/07/12 03:55:05;;;;;;;4.82;1.73;;;15.30;76.20;;;;;;5070098;28;20227;-67
2021/07/12 03:57:30;;;;;;;3.33;1.80;;;15.40;75.80;;;;;;5103974;28;20039;-67
2021/07/12 03:59:56;;;;;;;3.33;1.92;;;15.50;75.60;;;;;;5104884;28;20032;-67
2021/07/12 04:02:21;;;;;;;2.92;1.80;;;15.30;76.00;;;;;;5104241;28;20032;-67
2021/07/12 04:04:47;;;;;;;4.50;1.70;;;15.30;76.70;;;;;;5104189;28;20032;-67
2021/07/12 04:07:12;;;;;;;3.95;2.00;;;15.20;77.10;;;;;;5104150;28;20032;-67
2021/07/12 04:09:38;;;;;;;3.33;1.80;;;15.30;77.10;;;;;;5103860;28;20036;-68
2021/07/12 04:12:04;;;;;;;2.90;1.92;;;15.30;77.00;;;;;;5104380;28;20028;-66
2021/07/12 04:14:29;;;;;;;2.92;2.00;;;15.40;76.80;;;;;;5104226;28;20034;-66
2021/07/12 04:16:55;;;;;;;3.95;2.00;;;15.40;76.60;;;;;;5103921;28;20246;-67
2021/07/12 04:19:20;;;;;;;3.70;1.95;;;15.50;76.00;;;;;;5103692;28;20032;-67
2021/07/12 04:21:46;;;;;;;4.85;1.92;;;15.40;76.70;;;;;;5069143;28;20028;-66
2021/07/12 04:24:11;;;;;;;3.88;1.88;;;15.30;77.10;;;;;;5104490;28;20184;-67
2021/07/12 04:26:37;;;;;;;4.40;2.00;;;15.40;77.00;;;;;;5086259;28;20032;-67
2021/07/12 04:29:02;;;;;;;4.15;1.98;;;15.50;77.10;;;;;;5103597;28;20036;-67
2021/07/12 04:31:28;;;;;;;6.13;2.08;;;15.50;77.00;;;;;;5085813;28;20043;-67
2021/07/12 04:33:53;;;;;;;5.65;2.25;;;15.40;77.20;;;;;;5103785;28;20036;-67
2021/07/12 04:36:19;;;;;;;7.57;2.38;;;15.40;77.40;;;;;;5103510;28;20223;-67
2021/07/12 04:38:44;;;;;;;2.72;2.05;;;15.40;77.60;;;;;;5104365;28;20024;-67
2021/07/12 04:41:10;;;;;;;5.78;2.33;;;15.50;77.80;;;;;;5085624;28;20028;-67
2021/07/12 04:43:35;;;;;;;5.35;2.70;;;15.60;77.60;;;;;;5103498;28;20355;-67
2021/07/12 04:46:01;;;;;;;3.63;2.15;;;15.70;77.40;;;;;;5103669;28;20056;-66
2021/07/12 04:48:26;;;;;;;3.88;2.30;;;15.60;77.90;;;;;;5103409;28;20058;-69
2021/07/12 04:50:52;;;;;;;6.30;2.60;;;15.70;78.00;;;;;;5086632;28;20032;-68
2021/07/12 04:53:17;;;;;;;7.32;3.00;;;15.70;78.30;;;;;;5103832;28;20044;-68
2021/07/12 04:55:43;;;;;;;4.22;2.88;;;15.70;78.60;;;;;;5103330;28;20105;-67
2021/07/12 04:58:09;;;;;;;4.32;3.00;;;15.50;79.60;;;;;;5103716;28;20032;-67
2021/07/12 05:00:37;;;;;;;6.35;3.20;;;15.60;79.30;;;;;;5103363;28;20046;-67
2021/07/12 05:03:04;;;;;;;3.60;2.90;;;15.60;79.60;;;;;;5103830;28;20024;-67
2021/07/12 05:05:30;;;;;;;6.88;3.25;;;15.50;80.00;;;;;;5103563;28;20122;-69
2021/07/12 05:07:56;;;;;;;6.13;3.30;;;15.50;79.90;;;;;;5103613;28;20032;-67
2021/07/12 05:10:22;;;;;;;5.03;3.47;;;15.40;80.60;;;;;;5103200;28;20036;-68
2021/07/12 05:12:47;;;;;;;5.20;3.63;;;15.50;80.50;;;;;;5103102;28;20228;-68
2021/07/12 05:15:13;;;;;;;5.75;4.10;;;15.40;80.60;;;;;;5086687;28;20043;-68
2021/07/12 05:17:38;;;;;;;5.25;3.40;;;15.50;80.60;;;;;;5107783;28;20032;-67
2021/07/12 05:20:05;;;;;;;4.70;3.20;;;15.50;80.50;;;;;;5106869;28;20036;-67
2021/07/12 05:22:31;;;;;;;5.05;3.40;;;15.90;79.70;;;;;;5106866;28;20243;-67
2021/07/12 05:24:56;;;;;;;6.03;3.42;;;15.90;79.40;;;;;;5106844;28;20032;-67
2021/07/12 05:27:22;;;;;;;4.47;3.10;;;15.80;79.80;;;;;;5107250;28;20032;-68
2021/07/12 05:29:48;;;;;;;4.75;3.40;;;16.00;79.60;;;;;;5107631;28;20036;-67
2021/07/12 05:32:13;;;;;;;5.75;3.90;;;16.00;79.50;;;;;;5107131;28;20313;-67
2021/07/12 05:34:39;;;;;;;4.30;3.15;;;16.00;79.60;;;;;;5106953;28;20302;-67
2021/07/12 05:37:04;;;;;;;6.88;3.30;;;16.00;79.90;;;;;;5106731;28;20044;-67
2021/07/12 05:39:30;;;;;;;6.43;3.33;;;16.00;79.70;;;;;;5106798;28;20035;-67
2021/07/12 05:41:55;;;;;;;4.60;3.35;;;15.90;79.90;;;;;;5107093;28;20051;-67
2021/07/12 05:44:21;;;;;;;5.75;3.25;;;16.20;79.30;;;;;;5106963;28;20039;-67
2021/07/12 05:46:46;;;;;;;6.55;3.40;;;16.10;79.50;;;;;;5106787;28;20336;-67
2021/07/12 05:49:12;;;;;;;4.60;3.42;;;16.10;79.50;;;;;;5106587;28;20028;-67
2021/07/12 05:51:37;;;;;;;7.30;3.67;;;16.00;79.90;;;;;;5106312;28;20051;-67
2021/07/12 05:54:03;;;;;;;8.35;3.70;;;16.00;80.00;;;;;;5107065;28;20028;-67
2021/07/12 05:56:28;;;;;;;5.50;3.40;;;16.10;80.10;;;;;;5106731;28;20047;-67
2021/07/12 05:58:54;;;;;;;5.40;3.28;;;16.30;79.60;;;;;;5088450;28;20029;-67
2021/07/12 06:01:19;;;;;;;5.85;3.25;;;16.40;79.10;;;;;;5106442;28;20039;-67
2021/07/12 06:03:45;;;;;;;4.70;2.97;;;16.50;79.00;;;;;;5088121;28;20032;-67
2021/07/12 06:06:12;;;;;;;5.00;3.33;;;16.60;78.60;;;;;;5106627;28;20028;-68
2021/07/12 06:08:37;;;;;;;5.10;2.97;;;16.60;79.10;;;;;;5106617;28;20339;-67
2021/07/12 06:11:04;;;;;;;4.05;2.97;;;16.50;79.40;;;;;;5106428;28;20036;-68
2021/07/12 06:13:30;;;;;;;5.63;3.38;;;16.60;79.30;;;;;;5106435;28;20331;-68
2021/07/12 06:15:55;;;;;;;4.97;3.10;;;16.60;79.40;;;;;;5105704;28;20048;-68
2021/07/12 06:18:21;;;;;;;6.05;2.70;;;16.60;79.80;;;;;;5106330;28;20031;-68
2021/07/12 06:20:46;;;;;;;4.63;2.88;;;16.70;79.40;;;;;;5106286;28;20052;-68
2021/07/12 06:23:12;;;;;;;3.92;2.75;;;16.70;79.60;;;;;;5105867;28;20028;-68
2021/07/12 06:25:37;;;;;;;6.82;2.70;;;16.80;79.50;;;;;;5105182;28;20037;-68
2021/07/12 06:28:04;;;;;;;3.28;2.05;;;16.80;79.70;;;;;;5105625;28;20073;-68
2021/07/12 06:30:29;;;;;;;3.42;2.30;;;16.80;79.50;;;;;;5087666;28;20036;-68
2021/07/12 06:32:55;;;;;;;2.92;1.98;;;16.80;79.10;;;;;;5106424;28;20051;-68
2021/07/12 06:35:21;;;;;;;2.80;2.10;;;16.90;78.90;;;;;;5106086;28;20078;-69
2021/07/12 06:37:46;;;;;;;3.85;2.10;;;16.80;79.00;;;;;;5105430;28;20344;-69
2021/07/12 06:40:12;;;;;;;4.40;2.10;;;17.10;79.50;;;;;;5087316;28;20193;-68
2021/07/12 06:42:38;;;;;;;2.90;2.00;;;17.20;78.80;;;;;;5087434;28;20039;-68
2021/07/12 06:45:05;;;;;;;4.07;1.92;;;17.10;78.80;;;;;;5106113;28;20032;-68
2021/07/12 06:47:30;;;;;;;3.83;1.73;;;17.30;78.40;;;;;;5087924;28;20032;-68
2021/07/12 06:49:56;;;;;;;3.42;1.88;;;17.30;78.50;;;;;;5087835;28;20376;-68
2021/07/12 06:52:21;;;;;;;4.55;1.83;;;17.30;78.60;;;;;;5105342;28;20036;-68
2021/07/12 06:54:47;;;;;;;5.97;1.83;;;17.30;78.40;;;;;;5105129;28;20032;-68
2021/07/12 06:57:16;;;;;;;3.65;1.83;;;17.30;78.00;;;;;;5105652;28;20223;-67
2021/07/12 06:59:41;;;;;;;5.43;1.77;;;17.40;78.50;;;;;;5087774;28;20032;-69
2021/07/12 07:02:07;;;;;;;2.72;1.85;;;17.40;77.70;;;;;;5105110;28;20264;-68
2021/07/12 07:04:33;;;;;;;5.68;2.05;;;17.50;78.00;;;;;;5105205;28;20036;-69
2021/07/12 07:06:58;;;;;;;3.40;2.05;;;17.50;78.40;;;;;;5087100;28;20062;-69
2021/07/12 07:09:25;;;;;;;3.95;1.77;;;17.80;78.80;;;;;;5086927;28;20032;-69
2021/07/12 07:11:51;;;;;;;2.90;1.90;;;17.80;78.30;;;;;;5087618;28;20040;-69
2021/07/12 07:14:17;;;;;;;2.97;1.80;;;17.90;77.80;;;;;;5087095;28;20267;-68
2021/07/12 07:16:43;;;;;;;2.70;1.73;;;18.10;78.00;;;;;;5104578;28;20053;-68
2021/07/12 07:19:09;;;;;;;4.53;1.75;;;18.10;77.60;;;;;;5104632;28;20032;-69
2021/07/12 07:21:35;;;;;;;4.15;2.17;;;18.30;77.20;;;;;;5070235;28;20035;-67
2021/07/12 07:24:00;;;;;;;7.50;1.95;;;18.30;76.90;;;;;;5105199;28;20327;-68
2021/07/12 07:26:26;;;;;;;4.50;1.73;;;18.40;76.00;;;;;;5104907;28;20323;-68
2021/07/12 07:28:55;;;;;;;2.20;1.42;;;18.40;75.70;;;;;;5104541;28;20044;-68
2021/07/12 07:31:21;;;;;;;2.47;1.60;;;18.50;75.40;;;;;;5104471;28;20052;-68
2021/07/12 07:33:46;;;;;;;3.78;1.60;;;18.70;75.30;;;;;;5104410;28;20354;-68
2021/07/12 07:36:12;;;;;;;2.53;1.63;;;18.70;74.30;;;;;;5104863;28;20083;-68
2021/07/12 07:38:38;;;;;;;3.33;1.45;;;18.80;74.30;;;;;;5104086;28;20059;-68
2021/07/12 07:41:03;;;;;;;2.58;1.50;;;18.90;74.30;;;;;;5086630;28;20036;-68
2021/07/12 07:43:29;;;;;;;2.90;1.70;;;19.10;74.30;;;;;;5104281;28;20205;-68
2021/07/12 07:45:55;;;;;;;3.80;1.50;;;19.10;73.30;;;;;;5086483;28;20324;-68
2021/07/12 07:48:20;;;;;;;5.40;1.98;;;19.30;73.90;;;;;;5104206;28;20024;-68
2021/07/12 07:50:46;;;;;;;4.03;1.40;;;19.40;73.10;;;;;;5086699;28;20316;-68
2021/07/12 07:53:11;;;;;;;2.70;1.55;;;19.70;73.30;;;;;;5104325;28;20351;-68
2021/07/12 07:55:37;;;;;;;5.70;2.15;;;19.80;72.70;;;;;;5086362;28;20024;-68
2021/07/12 07:58:03;;;;;;;2.38;1.52;;;19.90;73.70;;;;;;5086001;28;20331;-67
2021/07/12 08:00:29;;;;;;;3.03;1.42;;;20.10;73.40;;;;;;5069320;28;20365;-69
2021/07/12 08:02:55;;;;;;;2.58;1.40;;;20.40;75.20;;;;;;5104759;28;20052;-68
2021/07/12 08:05:21;;;;;;;2.47;1.60;;;20.50;71.50;;;;;;5104392;28;20028;-69
2021/07/12 08:07:46;;;;;;;2.45;1.50;;;20.60;72.00;;;;;;5086323;28;20095;-68
2021/07/12 08:10:14;;;;;;;2.03;1.30;;;20.80;72.10;;;;;;5104161;28;20038;-68
2021/07/12 08:12:40;;;;;;;6.13;1.50;;;20.90;68.20;;;;;;5085879;28;20032;-69
2021/07/12 08:15:10;;;;;;;3.30;1.23;;;21.10;67.90;;;;;;5086298;28;20067;-68
2021/07/12 08:17:35;;;;;;;4.13;1.23;;;21.20;67.50;;;;;;5086331;28;20238;-68
2021/07/12 08:20:01;;;;;;;3.58;1.23;;;21.30;69.50;;;;;;5104128;28;20036;-69
2021/07/12 08:22:26;;;;;;;2.53;1.40;;;21.40;67.60;;;;;;5085800;28;20043;-69
2021/07/12 08:24:52;;;;;;;2.38;1.20;;;21.50;65.10;;;;;;5103781;28;20036;-68
2021/07/12 08:27:17;;;;;;;3.20;1.40;;;21.60;64.40;;;;;;5103932;28;20044;-69
2021/07/12 08:29:43;;;;;;;1.98;1.20;;;21.70;63.70;;;;;;5104446;28;20322;-69
2021/07/12 08:32:08;;;;;;;1.48;1.10;;;21.80;63.90;;;;;;5086160;28;20040;-68
2021/07/12 08:34:40;;;;;;;3.70;1.20;;;21.90;66.50;;;;;;5077881;28;20091;-69
2021/07/12 08:37:09;;;;;;;3.80;1.50;;;22.10;66.20;;;;;;5069370;28;20036;-68
2021/07/12 08:39:34;;;;;;;2.58;1.40;;;22.20;63.50;;;;;;5057190;28;20030;-69
2021/07/12 08:42:00;;;;;;;2.03;1.30;;;22.20;62.50;;;;;;5089987;28;20034;-68
2021/07/12 08:44:29;;;;;;;2.50;1.10;;;22.30;63.70;;;;;;5104212;28;20048;-69
2021/07/12 08:46:54;;;;;;;1.88;1.00;;;22.40;61.50;;;;;;5085628;28;20028;-69
2021/07/12 08:49:20;;;;;;;2.65;1.35;;;22.30;58.30;;;;;;5087260;28;20388;-70
2021/07/12 08:51:45;;;;;;;1.90;1.13;;;22.30;61.30;;;;;;5107608;28;20067;-71
2021/07/12 08:54:11;;;;;;;2.13;1.23;;;22.60;60.30;;;;;;5090432;28;20028;-71
2021/07/12 08:56:37;;;;;;;2.13;1.35;;;22.70;59.80;;;;;;5089946;28;20036;-68
2021/07/12 08:59:28;;;;;;;3.35;1.20;;;22.80;58.60;;;;;;5107854;28;20091;-67
2021/07/12 09:02:07;;;;;;;2.20;1.38;;;22.90;61.20;;;;;;5107792;28;20372;-68
2021/07/12 09:04:33;;;;;;;1.60;1.10;;;23.10;61.40;;;;;;5107302;28;20038;-68
2021/07/12 09:07:07;;;;;;;1.70;1.30;;;23.20;60.20;;;;;;5107178;28;20028;-67
2021/07/12 09:09:32;;;;;;;2.13;1.42;;;23.20;59.50;;;;;;5089269;28;20246;-68
2021/07/12 09:12:17;;;;;;;4.60;1.27;;;23.20;59.80;;;;;;5089834;28;20083;-69
2021/07/12 09:15:05;;;;;;;2.50;1.20;;;23.40;61.30;;;;;;5107436;28;20028;-68
2021/07/12 09:17:32;;;;;;;3.55;1.20;;;23.50;63.30;;;;;;5062158;28;20145;-69
2021/07/12 09:19:58;;;;;;;2.58;1.40;;;23.60;59.50;;;;;;5089142;28;20028;-69
2021/07/12 09:22:29;;;;;;;2.67;1.40;;;23.70;59.50;;;;;;5107037;28;20370;-69
2021/07/12 09:24:55;;;;;;;;;;;23.70;62.00;;;;;;5090415;28;20032;-68
2021/07/12 09:27:28;;;;;;;2.45;1.23;;;23.80;60.80;;;;;;5088933;28;19900;-68
2021/07/12 09:30:08;;;;;;;1.52;1.20;;;23.80;57.90;;;;;;5107311;28;20054;-68
2021/07/12 09:32:35;;;;;;;2.53;1.67;;;23.70;58.30;;;;;;5089506;28;20032;-68
2021/07/12 09:35:09;;;;;;;3.38;1.17;;;23.80;60.50;;;;;;5107165;28;20040;-68
2021/07/12 09:37:39;;;;;;;2.00;1.13;;;24.00;59.30;;;;;;5106597;28;20047;-68
2021/07/12 09:40:06;;;;;;;2.75;1.30;;;24.00;60.60;;;;;;5107063;28;20036;-70
2021/07/12 09:42:32;;;;;;;2.65;0.95;;;24.20;58.20;;;;;;5071778;28;20032;-69
2021/07/12 09:44:59;;;;;;;1.40;1.10;;;24.20;56.80;;;;;;5089170;28;20020;-70
2021/07/12 09:47:28;;;;;;;3.08;1.30;;;24.10;57.20;;;;;;5088971;28;20032;-69
2021/07/12 09:50:01;;;;;;;3.35;1.30;;;24.30;58.30;;;;;;5089268;28;20035;-70
2021/07/12 09:52:26;;;;;;;4.82;1.20;;;24.40;56.20;;;;;;5106589;28;20039;-69
2021/07/12 09:54:52;;;;;;;2.33;1.20;;;24.50;56.40;;;;;;5106418;28;20056;-70
2021/07/12 09:57:22;;;;;;;2.10;1.10;;;24.40;54.50;;;;;;5106745;28;20036;-69
2021/07/12 10:00:20;;;;;;;3.13;1.20;;;24.50;55.60;;;;;;5056067;28;20312;-69
2021/07/12 10:02:51;;;;;;;4.07;1.20;;;24.60;55.60;;;;;;5031471;28;20346;-70
2021/07/12 10:05:17;;;;;;;3.45;1.17;;;24.70;58.00;;;;;;5086077;28;20035;-71
2021/07/12 10:07:44;;;;;;;1.85;1.20;;;24.70;55.10;;;;;;5076095;28;20049;-71
2021/07/12 10:10:16;;;;;;;1.48;1.13;;;24.70;57.20;;;;;;5068639;28;20025;-71
2021/07/12 10:12:42;;;;;;;1.58;1.10;;;24.80;56.80;;;;;;5053595;28;20347;-70
2021/07/12 10:15:09;;;;;;;1.77;1.00;;;24.80;55.40;;;;;;5052030;28;20245;-71
2021/07/12 10:17:34;;;;;;;3.65;1.55;;;24.70;57.10;;;;;;5051033;28;20087;-69
2021/07/12 10:20:00;;;;;;;1.45;1.10;;;24.90;54.10;;;;;;5068283;28;20032;-69
2021/07/12 10:22:25;;;;;;;2.00;1.10;;;25.00;56.50;;;;;;5095954;28;20052;-69
2021/07/12 10:24:51;;;;;;;1.67;1.02;;;24.90;55.70;;;;;;5071582;28;20036;-69
2021/07/12 10:27:24;;;;;;;2.10;1.30;;;25.10;54.40;;;;;;5105240;28;20315;-70
2021/07/12 10:29:50;;;;;;;2.78;1.00;;;25.30;56.50;;;;;;5051774;28;20037;-70
2021/07/12 10:32:20;;;;;;;3.20;1.20;;;25.20;54.20;;;;;;5068129;28;20037;-70
2021/07/12 10:34:56;;;;;;;2.22;1.15;;;25.20;54.40;;;;;;5068035;28;20044;-70
2021/07/12 10:37:25;;;;;;;2.40;1.00;;;25.30;55.00;;;;;;5057232;28;20044;-70
2021/07/12 10:40:10;;;;;;;1.90;1.50;;;25.30;56.10;;;;;;5051131;28;20246;-69
2021/07/12 10:42:42;;;;;;;1.70;1.00;;;25.30;53.00;;;;;;5071998;28;20035;-69
2021/07/12 10:45:18;;;;;;;2.88;1.38;;;25.30;54.40;;;;;;5106280;28;20342;-71
2021/07/12 10:47:50;;;;;;;2.70;1.27;;;25.40;54.20;;;;;;5084443;28;20035;-70
2021/07/12 10:50:34;;;;;;;1.90;1.23;;;25.70;56.70;;;;;;5084825;28;20036;-71
2021/07/12 10:53:15;;;;;;;1.67;1.00;;;25.70;54.30;;;;;;5105565;28;20293;-71
2021/07/12 10:56:07;;;;;;;1.60;1.10;;;25.70;52.90;;;;;;5089275;28;20207;-70
2021/07/12 10:58:34;;;;;;;3.83;1.30;;;25.70;52.10;;;;;;5087367;28;20039;-70
2021/07/12 11:01:02;;;;;;;1.95;1.20;;;25.80;53.80;;;;;;5105202;28;20260;-70
2021/07/12 11:03:48;;;;;;;2.22;1.40;;;26.00;53.30;;;;;;5104972;28;20077;-71
2021/07/12 11:06:21;;;;;;;3.88;1.42;;;26.20;53.20;;;;;;5087775;28;20323;-70
2021/07/12 11:08:51;;;;;;;2.50;1.35;;;26.20;52.50;;;;;;5105489;28;20025;-70
2021/07/12 11:11:20;;;;;;;2.38;1.10;;;26.40;55.40;;;;;;5086988;28;20103;-71
2021/07/12 11:14:08;;;;;;;2.22;1.10;;;26.60;55.90;;;;;;5086837;28;20324;-72
2021/07/12 11:16:40;;;;;;;3.47;1.30;;;26.60;52.80;;;;;;5086548;28;20032;-69
2021/07/12 11:19:25;;;;;;;2.60;1.00;;;26.60;51.50;;;;;;5086842;28;20033;-72
2021/07/12 11:21:52;;;;;;;3.47;1.42;;;26.50;51.60;;;;;;5070059;28;20029;-72
2021/07/12 11:24:23;;;;;;;1.48;1.10;;;26.70;52.30;;;;;;5104615;28;20028;-71
2021/07/12 11:27:03;;;;;;;4.20;1.40;;;26.80;56.00;;;;;;5088163;28;20315;-72
2021/07/12 11:29:30;;;;;;;3.65;1.00;;;26.90;50.50;;;;;;5105109;28;20036;-72
2021/07/12 11:32:02;;;;;;;1.52;1.13;;;27.00;51.80;;;;;;5104689;28;20036;-72
2021/07/12 11:34:35;;;;;;;1.98;1.13;;;27.00;51.00;;;;;;5087552;28;20044;-72
2021/07/12 11:37:11;;;;;;;1.73;1.20;;;27.20;52.00;;;;;;5086434;28;20411;-72
2021/07/12 11:39:42;;;;;;;3.08;1.33;;;27.50;52.90;;;;;;5086657;28;20323;-70
2021/07/12 11:42:34;;;;;;;2.83;1.30;;;27.70;53.30;;;;;;5104906;28;20062;-73
2021/07/12 11:45:19;;;;;;;3.38;1.40;;;27.70;50.20;;;;;;5087710;28;20039;-72
2021/07/12 11:47:45;;;;;;;3.05;1.50;;;27.70;52.70;;;;;;5070452;28;20039;-72
2021/07/12 11:50:13;;;;;;;2.35;1.60;;;27.70;52.20;;;;;;5082748;28;20223;-73
2021/07/12 11:53:03;;;;;;;3.78;1.50;;;27.90;55.30;;;;;;5086231;28;20125;-72
2021/07/12 11:55:44;;;;;;;2.10;1.45;;;28.00;55.50;;;;;;5091030;28;20096;-72
2021/07/12 11:58:12;;;;;;;1.80;1.30;;;28.20;52.20;;;;;;5070883;28;20150;-73
2021/07/12 12:00:40;;;;;;;1.80;1.40;;;28.10;51.70;;;;;;5104722;28;20129;-72
2021/07/12 12:03:10;;;;;;;2.15;1.30;;;28.10;49.00;;;;;;5070486;28;20051;-73
2021/07/12 12:05:38;;;;;;;4.40;1.65;;;28.00;49.50;;;;;;5071758;28;20095;-72
2021/07/12 12:08:04;;;;;;;3.25;1.38;;;28.00;50.50;;;;;;5039965;28;20100;-72
2021/07/12 12:10:38;;;;;;;2.95;1.30;;;28.10;50.40;;;;;;5066104;28;20065;-70
2021/07/12 12:13:12;;;;;;;3.10;1.20;;;27.80;47.90;;;;;;5085466;28;20025;-71
2021/07/12 12:15:39;;;;;;;6.00;1.40;;;28.00;51.00;;;;;;5070055;28;20040;-71
2021/07/12 12:18:10;;;;;;;2.35;1.25;;;28.10;51.10;;;;;;5069716;28;20213;-71
2021/07/12 12:20:39;;;;;;;;;;;28.00;49.50;;;;;;5089550;28;20060;-71
2021/07/12 12:23:18;;;;;;;3.35;1.30;;;27.80;45.90;;;;;;5083384;28;19926;-71
2021/07/12 12:26:03;;;;;;;1.95;1.20;;;27.70;47.40;;;;;;5083397;28;20078;-70
2021/07/12 12:28:28;;;;;;;3.47;1.25;;;28.00;51.40;;;;;;5083406;28;20083;-71
2021/07/12 12:30:55;;;;;;;2.03;1.10;;;28.10;49.40;;;;;;5065553;28;20054;-71
2021/07/12 12:33:41;;;;;;;3.80;1.10;;;28.00;47.20;;;;;;5066595;28;20092;-70
2021/07/12 12:36:17;;;;;;;2.20;1.30;;;28.00;47.80;;;;;;5064656;28;20287;-70
2021/07/12 12:39:10;;;;;;;9.38;1.90;;;28.00;50.70;;;;;;5081587;28;20032;-71
2021/07/12 12:41:37;;;;;;;2.20;1.20;;;28.20;52.50;;;;;;5081190;28;20027;-71
2021/07/12 12:44:11;;;;;;;1.80;1.20;;;28.30;49.90;;;;;;5085243;28;20095;-71
2021/07/12 12:46:38;;;;;;;3.65;1.17;;;28.00;45.90;;;;;;5085371;28;20043;-71
2021/07/12 12:49:30;;;;;;;2.78;1.02;;;28.00;47.30;;;;;;5103319;28;20074;-70
2021/07/12 12:51:57;;;;;;;1.90;1.10;;;27.90;46.40;;;;;;5099148;28;20362;-71
2021/07/12 12:54:35;;;;;;;2.15;1.55;;;28.10;50.50;;;;;;5069728;28;20084;-71
2021/07/12 12:57:01;;;;;;;2.85;1.73;;;28.10;49.50;;;;;;5103750;28;20036;-72
2021/07/12 12:59:32;;;;;;;2.30;1.60;;;28.30;52.90;;;;;;5068901;28;20327;-71